CSU4 weather

Ste-Lucie-De-Beauregard Airport
Ste-Lucie-De-Beauregard, Quebec, Canada

Public forecast

Using degrees Celsius for public forecast. Weather courtesy of forecast.io.

METAR (pilot weather report)

Closest report is Quebec Jean Lesage International Airport, 56.0 nm (103.8 km) W. Retrieved 2019/09/24 07:00 UTC (40 minutes ago):

CYQB 240700Z 07021G28KT 15SM -SHRA BKN024 OVC032 14/10 A2960 RMK SC6SC2 CVCTV CLD EMBD SLP027 DENSITY ALT 500FT

TAF (pilot weather forecast)

Forecast is more than 12 hours old.

Closest forecast is Charlevoix Airport, 52.0 nm (96.4 km) N. Retrieved 2018/06/10 18:00 UTC (1 year ago):

TAF CYML 101730Z 1018/1106 12005KT P6SM FEW060 FM102100 14006KT P6SM SCT080 BECMG 1021/1023 VRB03KT RMK NXT FCST BY 110000Z